Time;durP1;ratioP1;P1;durP2;ratioP2;P2;SDS_P1;SDS_P2;PMS_P1;PMS_P2;Temp;Humidity;BMP_temperature;BMP_pressure;BME280_temperature;BME280_humidity;BME280_pressure;Samples;Min_cycle;Max_cycle;Signal;HPM_P1;HPM_P2
2023/08/26 00:01:10;;;;;;;4.97;2.83;;;22.00;93.10;;;;;;5096461;28;20016;-78
2023/08/26 00:03:36;;;;;;;5.03;2.80;;;22.00;93.10;;;;;;5096297;28;20024;-78
2023/08/26 00:06:01;;;;;;;4.70;2.60;;;21.90;93.10;;;;;;5096560;28;20040;-78
2023/08/26 00:08:27;;;;;;;5.07;2.50;;;22.00;93.10;;;;;;5096407;28;20485;-78
2023/08/26 00:10:52;;;;;;;5.45;3.10;;;21.90;93.10;;;;;;5096306;28;20028;-78
2023/08/26 00:13:18;;;;;;;4.55;2.65;;;22.00;93.10;;;;;;5096264;28;20024;-78
2023/08/26 00:15:44;;;;;;;4.68;2.58;;;21.90;93.10;;;;;;5085619;28;20366;-78
2023/08/26 00:18:11;;;;;;;4.47;2.67;;;21.90;93.10;;;;;;5075672;28;20099;-78
2023/08/26 00:20:38;;;;;;;4.13;2.60;;;22.00;93.20;;;;;;5074304;28;20032;-77
2023/08/26 00:23:04;;;;;;;4.53;2.65;;;22.00;93.10;;;;;;5074350;28;20803;-78
2023/08/26 00:25:30;;;;;;;5.35;3.10;;;22.00;93.10;;;;;;5075440;28;20032;-78
2023/08/26 00:27:55;;;;;;;4.57;2.60;;;22.00;93.10;;;;;;5075472;28;20035;-78
2023/08/26 00:30:21;;;;;;;4.53;2.70;;;22.00;93.00;;;;;;5075629;28;20025;-78
2023/08/26 00:32:47;;;;;;;4.45;2.72;;;22.00;93.00;;;;;;5075568;28;20032;-75
2023/08/26 00:35:13;;;;;;;4.78;2.75;;;22.00;93.10;;;;;;5075117;28;20391;-78
2023/08/26 00:37:38;;;;;;;5.03;2.80;;;22.10;93.00;;;;;;5075772;28;20100;-79
2023/08/26 00:40:05;;;;;;;4.28;2.53;;;22.10;93.00;;;;;;5074216;28;20024;-78
2023/08/26 00:42:36;;;;;;;5.22;2.63;;;22.10;92.90;;;;;;5075596;28;20035;-78
2023/08/26 00:45:01;;;;;;;4.85;2.83;;;22.10;92.90;;;;;;5074184;28;20580;-78
2023/08/26 00:47:27;;;;;;;5.53;3.08;;;22.10;92.90;;;;;;5091029;28;20115;-78
2023/08/26 00:49:52;;;;;;;5.35;3.22;;;22.10;92.90;;;;;;5075322;28;20397;-77
2023/08/26 00:52:18;;;;;;;5.72;3.10;;;22.00;93.10;;;;;;5075146;28;20024;-78
2023/08/26 00:54:44;;;;;;;5.65;3.38;;;22.10;92.90;;;;;;5090597;28;20029;-78
2023/08/26 00:57:10;;;;;;;4.55;2.83;;;22.10;92.90;;;;;;5073907;28;20473;-79
2023/08/26 00:59:36;;;;;;;4.47;2.50;;;22.10;92.90;;;;;;5075202;28;20063;-78
2023/08/26 01:02:02;;;;;;;5.35;3.20;;;22.00;93.00;;;;;;5073878;28;20032;-78
2023/08/26 01:04:27;;;;;;;4.75;2.80;;;22.00;93.00;;;;;;5074968;28;20099;-78
2023/08/26 01:06:53;;;;;;;5.70;3.00;;;22.00;93.10;;;;;;5073563;28;20607;-78
2023/08/26 01:09:19;;;;;;;5.50;3.20;;;22.00;93.10;;;;;;5073528;28;20063;-78
2023/08/26 01:11:59;;;;;;;5.28;3.25;;;21.80;93.00;;;;;;5073558;28;20029;-78
2023/08/26 01:14:45;;;;;;;5.13;3.10;;;21.90;93.10;;;;;;5072994;28;20029;-78
2023/08/26 01:17:12;;;;;;;5.80;3.33;;;22.00;93.10;;;;;;5090353;28;20101;-78
2023/08/26 01:19:40;;;;;;;5.90;3.38;;;22.00;93.10;;;;;;5074609;28;20127;-77
2023/08/26 01:22:07;;;;;;;5.85;3.70;;;21.90;93.10;;;;;;5074716;28;20142;-78
2023/08/26 01:24:35;;;;;;;5.47;3.20;;;21.90;93.10;;;;;;5073961;28;20389;-78
2023/08/26 01:27:00;;;;;;;5.50;3.40;;;21.90;93.10;;;;;;5074534;28;20021;-78
2023/08/26 01:29:26;;;;;;;5.88;3.63;;;21.90;93.10;;;;;;5074563;28;20021;-78
2023/08/26 01:32:25;;;;;;;5.13;3.35;;;21.90;93.10;;;;;;5074300;28;20020;-78
2023/08/26 01:34:56;;;;;;;5.30;3.22;;;21.90;93.10;;;;;;5048335;28;20068;-78
2023/08/26 01:37:23;;;;;;;5.13;3.22;;;21.90;93.20;;;;;;5074198;28;20045;-78
2023/08/26 01:39:52;;;;;;;5.40;3.58;;;21.90;93.20;;;;;;5089782;28;20119;-78
2023/08/26 01:42:22;;;;;;;5.30;3.30;;;21.90;93.20;;;;;;5072819;28;20028;-78
2023/08/26 01:44:48;;;;;;;5.57;3.20;;;21.90;93.20;;;;;;5089261;28;20447;-78
2023/08/26 01:47:15;;;;;;;5.63;3.40;;;21.90;93.20;;;;;;5072675;28;20020;-78
2023/08/26 01:49:40;;;;;;;5.07;3.20;;;21.90;93.20;;;;;;5089775;28;20035;-78
2023/08/26 01:52:06;;;;;;;5.93;3.67;;;21.90;93.20;;;;;;5072670;28;20025;-78
2023/08/26 01:54:32;;;;;;;5.72;3.42;;;22.00;93.20;;;;;;5073573;28;20028;-78
2023/08/26 01:56:57;;;;;;;5.43;3.30;;;22.00;93.10;;;;;;5073618;28;20579;-79
2023/08/26 01:59:23;;;;;;;5.63;3.58;;;22.00;93.10;;;;;;5073828;28;20036;-78
2023/08/26 02:01:48;;;;;;;5.55;3.15;;;22.00;93.10;;;;;;5073954;28;20078;-78
2023/08/26 02:04:14;;;;;;;5.63;3.38;;;22.00;93.00;;;;;;5077078;28;20500;-78
2023/08/26 02:06:40;;;;;;;5.22;3.28;;;22.00;93.20;;;;;;5093792;28;20028;-78
2023/08/26 02:09:07;;;;;;;5.28;3.20;;;22.00;93.00;;;;;;5094087;28;20673;-78
2023/08/26 02:11:32;;;;;;;5.55;3.38;;;22.00;93.00;;;;;;5093865;28;20098;-78
2023/08/26 02:13:58;;;;;;;5.60;3.78;;;22.00;92.90;;;;;;5092421;28;20095;-78
2023/08/26 02:16:23;;;;;;;5.40;3.30;;;22.00;92.90;;;;;;5092625;28;20028;-78
2023/08/26 02:18:49;;;;;;;6.00;3.53;;;22.00;92.90;;;;;;5093948;28;20024;-78
2023/08/26 02:21:14;;;;;;;6.00;3.75;;;22.00;92.90;;;;;;5092684;28;20016;-78
2023/08/26 02:23:40;;;;;;;6.60;3.47;;;22.00;93.00;;;;;;5092359;28;20020;-77
2023/08/26 02:26:06;;;;;;;5.45;3.33;;;22.00;93.00;;;;;;5093565;28;20027;-78
2023/08/26 02:28:31;;;;;;;5.72;3.47;;;22.00;93.00;;;;;;5093994;28;20024;-79
2023/08/26 02:30:57;;;;;;;6.30;3.45;;;22.00;93.10;;;;;;5093733;28;20719;-78
2023/08/26 02:33:24;;;;;;;5.28;3.40;;;22.00;93.10;;;;;;5093465;28;20495;-78
2023/08/26 02:35:50;;;;;;;5.03;3.40;;;22.00;93.10;;;;;;5093113;28;20016;-78
2023/08/26 02:38:15;;;;;;;5.10;3.13;;;21.90;93.10;;;;;;5092232;28;20027;-78
2023/08/26 02:40:41;;;;;;;5.97;3.50;;;21.90;93.10;;;;;;5092021;28;20024;-78
2023/08/26 02:43:06;;;;;;;6.15;3.72;;;21.90;93.10;;;;;;5092280;28;20028;-79
2023/08/26 02:45:32;;;;;;;6.63;4.00;;;21.90;93.20;;;;;;5093411;28;20038;-78
2023/08/26 02:47:57;;;;;;;6.18;3.78;;;22.00;93.20;;;;;;5093522;28;20484;-78
2023/08/26 02:50:24;;;;;;;5.70;3.90;;;21.90;93.20;;;;;;5093519;28;20035;-78
2023/08/26 02:52:50;;;;;;;5.88;3.95;;;21.90;93.20;;;;;;5093524;28;20070;-78
2023/08/26 02:55:15;;;;;;;6.03;4.03;;;21.90;93.20;;;;;;5092890;28;20040;-78
2023/08/26 02:57:41;;;;;;;6.00;3.88;;;21.90;93.20;;;;;;5093141;28;20028;-78
2023/08/26 03:00:08;;;;;;;5.38;3.50;;;21.90;93.20;;;;;;5091960;28;20024;-78
2023/08/26 03:02:34;;;;;;;6.00;3.60;;;21.90;93.20;;;;;;5091854;28;20031;-78
2023/08/26 03:04:59;;;;;;;6.18;4.30;;;21.90;93.20;;;;;;5091692;28;20032;-78
2023/08/26 03:07:25;;;;;;;5.93;4.22;;;21.90;93.20;;;;;;5092058;28;20066;-78
2023/08/26 03:09:50;;;;;;;5.75;3.58;;;21.90;93.20;;;;;;5091894;28;20039;-78
2023/08/26 03:12:16;;;;;;;7.22;4.80;;;21.90;93.20;;;;;;5093333;28;20032;-78
2023/08/26 03:14:41;;;;;;;6.00;3.85;;;21.90;93.20;;;;;;5092741;28;20024;-78
2023/08/26 03:17:07;;;;;;;6.20;3.95;;;21.80;93.20;;;;;;5094606;28;20024;-78
2023/08/26 03:19:33;;;;;;;6.55;3.78;;;21.90;93.20;;;;;;5096039;28;20476;-78
2023/08/26 03:21:59;;;;;;;6.10;3.95;;;21.90;93.20;;;;;;5095813;28;20052;-78
2023/08/26 03:24:25;;;;;;;6.35;3.95;;;21.90;93.10;;;;;;5097085;28;20037;-78
2023/08/26 03:26:51;;;;;;;6.53;4.10;;;22.00;93.10;;;;;;5096992;28;20441;-78
2023/08/26 03:29:16;;;;;;;6.05;3.92;;;22.00;93.10;;;;;;5095735;28;20046;-78
2023/08/26 03:31:43;;;;;;;6.28;3.90;;;22.00;93.10;;;;;;5095640;28;20107;-78
2023/08/26 03:34:09;;;;;;;6.15;3.97;;;22.00;93.00;;;;;;5096723;28;20020;-78
2023/08/26 03:36:34;;;;;;;6.28;4.00;;;22.00;93.00;;;;;;5096816;28;20028;-78
2023/08/26 03:39:00;;;;;;;6.63;4.03;;;22.00;93.00;;;;;;5096971;28;20028;-80
2023/08/26 03:41:25;;;;;;;6.10;3.95;;;22.00;93.00;;;;;;5095532;28;20028;-78
2023/08/26 03:43:51;;;;;;;5.75;3.88;;;22.00;93.00;;;;;;5096424;28;20561;-78
2023/08/26 03:46:16;;;;;;;6.07;3.92;;;22.00;93.00;;;;;;5096571;28;20049;-78
2023/08/26 03:48:42;;;;;;;6.85;4.38;;;22.00;93.00;;;;;;5096435;28;20035;-78
2023/08/26 03:51:07;;;;;;;6.30;4.00;;;22.00;93.00;;;;;;5096833;28;20484;-78
2023/08/26 03:53:33;;;;;;;6.50;4.05;;;21.90;93.00;;;;;;5096414;28;20078;-78
2023/08/26 03:55:59;;;;;;;5.85;3.90;;;21.90;93.10;;;;;;5108673;22;20041;-77
2023/08/26 03:58:26;;;;;;;7.03;4.30;;;21.90;93.10;;;;;;5060268;28;20029;-78
2023/08/26 04:01:02;;;;;;;6.03;4.00;;;21.90;93.10;;;;;;5078163;28;20016;-78
2023/08/26 04:03:27;;;;;;;7.30;4.18;;;21.90;93.10;;;;;;5059833;28;20583;-78
2023/08/26 04:06:01;;;;;;;6.43;4.20;;;21.90;93.10;;;;;;5077248;28;20060;-78
2023/08/26 04:08:27;;;;;;;7.30;4.70;;;21.90;93.20;;;;;;5060284;28;20027;-79
2023/08/26 04:10:57;;;;;;;6.53;4.45;;;21.90;93.20;;;;;;5078040;28;20056;-78
2023/08/26 04:13:24;;;;;;;6.50;4.40;;;21.90;93.20;;;;;;5059587;28;20119;-78
2023/08/26 04:15:53;;;;;;;6.97;4.70;;;21.90;93.20;;;;;;5049251;28;20044;-78
2023/08/26 04:18:19;;;;;;;6.57;4.70;;;21.90;93.20;;;;;;5039340;28;20097;-78
2023/08/26 04:20:44;;;;;;;7.03;4.82;;;21.90;93.20;;;;;;5039879;28;20052;-79
2023/08/26 04:23:10;;;;;;;6.78;4.53;;;21.80;93.20;;;;;;5052524;28;20044;-79
2023/08/26 04:25:36;;;;;;;6.72;4.57;;;21.80;93.20;;;;;;5044855;28;20481;-78
2023/08/26 04:28:02;;;;;;;7.03;4.63;;;21.80;93.20;;;;;;5054168;28;20052;-78
2023/08/26 04:30:28;;;;;;;6.68;4.63;;;21.80;93.20;;;;;;5054376;28;20044;-78
2023/08/26 04:32:53;;;;;;;6.78;4.75;;;21.80;93.20;;;;;;5054448;28;20096;-78
2023/08/26 04:35:19;;;;;;;6.47;4.40;;;21.80;93.20;;;;;;5054983;28;20033;-78
2023/08/26 04:37:44;;;;;;;6.80;4.65;;;21.90;93.20;;;;;;5054093;28;20021;-78
2023/08/26 04:40:13;;;;;;;6.38;3.97;;;21.80;93.20;;;;;;5072521;28;20040;-78
2023/08/26 04:42:41;;;;;;;6.82;4.90;;;21.80;93.20;;;;;;5054149;28;20031;-76
2023/08/26 04:45:09;;;;;;;6.60;4.53;;;21.80;93.20;;;;;;5057423;28;20128;-76
2023/08/26 04:47:35;;;;;;;6.95;4.50;;;21.90;93.20;;;;;;5034196;28;20127;-78
2023/08/26 04:50:01;;;;;;;6.75;4.45;;;21.80;93.20;;;;;;5034334;28;20036;-78
2023/08/26 04:52:26;;;;;;;6.75;4.55;;;21.90;93.20;;;;;;5034338;28;20033;-78
2023/08/26 04:54:52;;;;;;;7.35;4.45;;;21.90;93.10;;;;;;5051421;28;20028;-77
2023/08/26 04:57:18;;;;;;;8.00;4.90;;;21.90;93.10;;;;;;5033589;28;20033;-79
2023/08/26 04:59:43;;;;;;;6.97;4.95;;;21.90;93.00;;;;;;5054079;28;20024;-77
2023/08/26 05:02:09;;;;;;;7.47;4.75;;;21.90;93.00;;;;;;5054574;28;20033;-78
2023/08/26 05:04:36;;;;;;;7.03;4.55;;;22.00;93.20;;;;;;5054299;28;20025;-80
2023/08/26 05:07:03;;;;;;;7.28;4.47;;;22.00;92.90;;;;;;5055039;28;20024;-77
2023/08/26 05:09:28;;;;;;;10.93;5.82;;;22.00;92.90;;;;;;5054687;28;20028;-77
2023/08/26 05:11:57;;;;;;;7.82;5.38;;;22.00;92.90;;;;;;5054469;28;20090;-77
2023/08/26 05:14:25;;;;;;;8.52;5.65;;;22.00;92.90;;;;;;5054692;28;20147;-78
2023/08/26 05:16:51;;;;;;;8.38;5.25;;;22.00;92.90;;;;;;5053967;28;20485;-78
2023/08/26 05:19:16;;;;;;;8.43;4.80;;;22.00;92.90;;;;;;5054391;28;20093;-77
2023/08/26 05:21:42;;;;;;;7.43;4.90;;;21.90;93.00;;;;;;5054195;28;20103;-78
2023/08/26 05:24:08;;;;;;;7.20;4.68;;;21.90;93.00;;;;;;5054184;28;20031;-78
2023/08/26 05:26:33;;;;;;;7.63;5.05;;;21.90;93.10;;;;;;5054404;28;20040;-78
2023/08/26 05:28:59;;;;;;;7.07;4.35;;;21.90;93.10;;;;;;5054443;28;20447;-79
2023/08/26 05:31:26;;;;;;;6.07;4.00;;;21.90;93.00;;;;;;5054148;28;20029;-78
2023/08/26 05:33:52;;;;;;;6.28;4.35;;;21.90;93.00;;;;;;5061172;28;20036;-78
2023/08/26 05:36:18;;;;;;;6.75;4.55;;;21.90;93.10;;;;;;5033164;28;20028;-79
2023/08/26 05:38:43;;;;;;;7.65;4.72;;;21.90;93.10;;;;;;5033114;28;20124;-77
2023/08/26 05:41:09;;;;;;;7.88;5.05;;;21.90;93.10;;;;;;5034448;28;20155;-78
2023/08/26 05:43:34;;;;;;;6.68;4.35;;;21.90;93.10;;;;;;5046693;28;20025;-78
2023/08/26 05:46:00;;;;;;;7.72;4.90;;;21.80;93.00;;;;;;5074953;28;20079;-78
2023/08/26 05:48:25;;;;;;;6.80;4.90;;;21.90;93.10;;;;;;5056880;28;20025;-78
2023/08/26 05:50:51;;;;;;;7.10;5.07;;;21.90;93.10;;;;;;5074507;28;20090;-78
2023/08/26 05:53:16;;;;;;;10.05;5.38;;;21.90;93.10;;;;;;5074504;28;20029;-78
2023/08/26 05:55:43;;;;;;;8.80;5.55;;;21.90;93.00;;;;;;5056339;28;20024;-78
2023/08/26 05:58:09;;;;;;;7.63;5.45;;;21.90;92.90;;;;;;5056538;28;20116;-78
2023/08/26 06:00:34;;;;;;;7.70;5.45;;;21.90;92.90;;;;;;5056482;28;20052;-79
2023/08/26 06:03:00;;;;;;;7.97;5.20;;;21.90;92.80;;;;;;5074127;28;20020;-78
2023/08/26 06:05:25;;;;;;;8.43;5.30;;;22.00;92.80;;;;;;5056141;28;20028;-78
2023/08/26 06:07:51;;;;;;;6.90;4.78;;;21.90;92.80;;;;;;5056601;28;20599;-78
2023/08/26 06:10:17;;;;;;;8.82;5.47;;;22.00;92.70;;;;;;5073813;28;20025;-78
2023/08/26 06:12:43;;;;;;;7.43;4.97;;;22.00;92.70;;;;;;5044651;28;20033;-78
2023/08/26 06:15:09;;;;;;;8.55;4.93;;;22.10;92.70;;;;;;5035870;28;20398;-78
2023/08/26 06:17:35;;;;;;;7.60;5.28;;;22.00;92.60;;;;;;5044254;28;20162;-78
2023/08/26 06:20:04;;;;;;;7.05;4.90;;;22.00;92.50;;;;;;5036399;28;20021;-78
2023/08/26 06:22:30;;;;;;;7.40;4.60;;;22.10;92.50;;;;;;5036196;28;20028;-78
2023/08/26 06:24:56;;;;;;;7.45;4.78;;;22.10;92.40;;;;;;5045888;28;20017;-78
2023/08/26 06:27:23;;;;;;;7.57;4.40;;;22.10;92.30;;;;;;5054909;28;20021;-78
2023/08/26 06:29:53;;;;;;;7.43;4.50;;;22.20;92.30;;;;;;5036051;28;20102;-78
2023/08/26 06:32:21;;;;;;;7.70;4.30;;;22.20;92.30;;;;;;5036116;28;20573;-79
2023/08/26 06:34:47;;;;;;;7.95;4.68;;;22.20;92.30;;;;;;5047330;28;20025;-78
2023/08/26 06:37:16;;;;;;;7.20;4.40;;;22.20;92.20;;;;;;5053228;28;20027;-78
2023/08/26 06:39:41;;;;;;;6.93;4.65;;;22.20;92.20;;;;;;5056000;28;20025;-77
2023/08/26 06:42:07;;;;;;;7.50;4.60;;;22.20;92.20;;;;;;5040399;28;20028;-78
2023/08/26 06:44:32;;;;;;;7.70;3.92;;;22.20;92.20;;;;;;5062769;28;20496;-77
2023/08/26 06:46:59;;;;;;;6.30;4.10;;;22.20;92.10;;;;;;5055742;28;20021;-78
2023/08/26 06:49:25;;;;;;;7.57;4.15;;;22.20;92.10;;;;;;5055829;28;20029;-80
2023/08/26 06:51:50;;;;;;;6.05;3.95;;;22.20;92.10;;;;;;5054856;28;20074;-79
2023/08/26 06:54:16;;;;;;;7.13;4.10;;;22.20;92.10;;;;;;5054985;28;20401;-80
2023/08/26 06:56:41;;;;;;;6.03;3.63;;;22.30;92.10;;;;;;5054898;28;20024;-78
2023/08/26 06:59:07;;;;;;;6.97;4.00;;;22.30;92.00;;;;;;5054855;28;20017;-79
2023/08/26 07:01:34;;;;;;;5.90;3.67;;;22.30;92.00;;;;;;5054443;28;20036;-78
2023/08/26 07:04:07;;;;;;;5.72;3.47;;;22.30;92.00;;;;;;5054476;28;20020;-79
2023/08/26 07:06:33;;;;;;;6.03;3.80;;;22.30;92.00;;;;;;5072466;28;20542;-80
2023/08/26 07:08:59;;;;;;;5.90;3.60;;;22.30;92.00;;;;;;5072627;28;20028;-79
2023/08/26 07:11:25;;;;;;;5.93;3.50;;;22.30;92.00;;;;;;5053439;28;20564;-79
2023/08/26 07:13:50;;;;;;;6.28;3.70;;;22.30;92.00;;;;;;5039981;28;20025;-80
2023/08/26 07:16:16;;;;;;;5.30;3.42;;;22.30;92.10;;;;;;5034377;28;20029;-79
2023/08/26 07:18:41;;;;;;;5.85;3.42;;;22.30;92.00;;;;;;5052848;28;20403;-80
2023/08/26 07:21:06;;;;;;;5.70;3.55;;;22.30;92.00;;;;;;5052268;28;20021;-79
2023/08/26 07:23:32;;;;;;;6.10;3.78;;;22.30;91.90;;;;;;5051959;28;20067;-79
2023/08/26 07:25:58;;;;;;;5.78;3.47;;;22.30;91.90;;;;;;5033894;28;20025;-80
2023/08/26 07:28:23;;;;;;;6.22;3.58;;;22.30;91.90;;;;;;5034399;28;20025;-82
2023/08/26 07:30:49;;;;;;;5.95;3.15;;;22.20;91.90;;;;;;5044730;28;20059;-80
2023/08/26 07:33:14;;;;;;;5.93;3.70;;;22.30;91.90;;;;;;5072167;28;20048;-80
2023/08/26 07:35:40;;;;;;;4.90;3.20;;;22.30;91.90;;;;;;5071963;28;20032;-80
2023/08/26 07:38:05;;;;;;;5.05;3.28;;;22.40;92.00;;;;;;5054447;28;20488;-80
2023/08/26 07:40:31;;;;;;;5.85;3.30;;;22.50;91.90;;;;;;5053872;28;20065;-83
2023/08/26 07:42:58;;;;;;;5.13;2.90;;;22.40;91.80;;;;;;5054010;28;20017;-80
2023/08/26 07:45:23;;;;;;;13.75;3.80;;;22.50;91.70;;;;;;5055561;28;20033;-79
2023/08/26 07:47:49;;;;;;;8.30;3.15;;;22.50;91.50;;;;;;5056548;28;20485;-79
2023/08/26 07:50:15;;;;;;;15.13;3.30;;;22.50;91.30;;;;;;5056641;28;20115;-78
2023/08/26 07:52:40;;;;;;;15.48;3.72;;;22.50;91.00;;;;;;5055872;28;20052;-78
2023/08/26 07:55:06;;;;;;;12.38;2.97;;;22.60;90.90;;;;;;5074726;28;20029;-79
2023/08/26 07:57:31;;;;;;;12.30;3.20;;;22.60;90.70;;;;;;5056661;28;20025;-78
2023/08/26 07:59:57;;;;;;;13.45;3.60;;;22.70;90.60;;;;;;5057030;28;20020;-78
2023/08/26 08:02:22;;;;;;;11.35;2.95;;;22.70;90.50;;;;;;5074506;28;20021;-79
2023/08/26 08:04:48;;;;;;;13.57;3.25;;;22.70;90.20;;;;;;5059949;28;20024;-78
2023/08/26 08:07:14;;;;;;;10.43;3.05;;;22.80;89.60;;;;;;5059871;28;20037;-79
2023/08/26 08:09:39;;;;;;;15.50;2.67;;;22.70;89.30;;;;;;5077227;28;20020;-78
2023/08/26 08:12:05;;;;;;;13.60;2.58;;;22.70;80.90;;;;;;5059479;28;20028;-78
2023/08/26 08:14:31;;;;;;;7.38;1.92;;;22.60;80.40;;;;;;5059225;28;20025;-78
2023/08/26 08:16:56;;;;;;;8.50;2.20;;;22.70;79.10;;;;;;5077554;28;20033;-79
2023/08/26 08:19:23;;;;;;;5.95;1.83;;;22.60;79.10;;;;;;5077699;28;20021;-79
2023/08/26 08:21:48;;;;;;;9.35;2.10;;;22.70;78.50;;;;;;5059554;28;20017;-79
2023/08/26 08:24:14;;;;;;;7.78;1.92;;;22.70;81.20;;;;;;5077109;28;20495;-79
2023/08/26 08:26:43;;;;;;;6.00;1.77;;;22.70;80.60;;;;;;5059583;28;20028;-78
2023/08/26 08:29:10;;;;;;;6.43;1.58;;;22.70;79.80;;;;;;5059437;28;20054;-79
2023/08/26 08:31:36;;;;;;;8.02;1.80;;;22.70;79.40;;;;;;5077025;28;20051;-79
2023/08/26 08:34:03;;;;;;;6.60;1.50;;;22.80;79.40;;;;;;5058966;28;20067;-79
2023/08/26 08:36:29;;;;;;;5.20;1.52;;;22.80;79.50;;;;;;5076064;28;20029;-78
2023/08/26 08:38:56;;;;;;;7.78;1.73;;;22.70;79.10;;;;;;5059348;28;20020;-79
2023/08/26 08:41:22;;;;;;;5.63;1.83;;;22.70;78.70;;;;;;5059136;28;20021;-79
2023/08/26 08:43:52;;;;;;;6.47;2.08;;;22.70;78.00;;;;;;5058797;28;20054;-79
2023/08/26 08:46:18;;;;;;;6.25;1.80;;;22.50;78.10;;;;;;5058879;28;20032;-79
2023/08/26 08:48:44;;;;;;;5.38;1.60;;;22.50;78.70;;;;;;5059148;28;20029;-79
2023/08/26 08:51:11;;;;;;;8.35;2.03;;;22.50;78.90;;;;;;5058950;28;20432;-79
2023/08/26 08:53:45;;;;;;;5.13;1.60;;;22.50;78.60;;;;;;5058538;28;20109;-79
2023/08/26 08:56:11;;;;;;;6.90;1.83;;;22.40;78.00;;;;;;5058410;28;20093;-79
2023/08/26 08:58:38;;;;;;;10.88;1.70;;;22.50;77.60;;;;;;5058900;28;20048;-79
2023/08/26 09:01:04;;;;;;;6.63;1.50;;;22.40;78.00;;;;;;5058758;28;20485;-79
2023/08/26 09:03:30;;;;;;;5.22;1.42;;;22.40;77.60;;;;;;5058388;28;20035;-79
2023/08/26 09:05:55;;;;;;;5.25;1.70;;;22.40;77.70;;;;;;5058746;28;20043;-79
2023/08/26 09:08:24;;;;;;;18.17;2.55;;;22.40;77.10;;;;;;5058962;28;20051;-79
2023/08/26 09:10:51;;;;;;;6.20;1.77;;;22.40;76.90;;;;;;5058224;28;20111;-79
2023/08/26 09:13:16;;;;;;;6.97;1.85;;;22.40;77.00;;;;;;5076433;28;20059;-78
2023/08/26 09:15:42;;;;;;;5.05;1.50;;;22.40;76.80;;;;;;5058617;28;20025;-79
2023/08/26 09:18:12;;;;;;;4.78;1.70;;;22.40;76.40;;;;;;5058496;28;20112;-79
2023/08/26 09:20:41;;;;;;;5.47;1.80;;;22.30;75.90;;;;;;5058256;28;20492;-79
2023/08/26 09:23:08;;;;;;;7.07;1.80;;;22.30;75.90;;;;;;5076689;28;20032;-79
2023/08/26 09:25:35;;;;;;;6.50;2.03;;;22.20;75.60;;;;;;5058132;28;20643;-78
2023/08/26 09:28:01;;;;;;;4.18;1.65;;;22.20;75.60;;;;;;5058423;28;20029;-78
2023/08/26 09:30:26;;;;;;;5.78;1.77;;;22.10;74.40;;;;;;5058564;28;20035;-78
2023/08/26 09:32:53;;;;;;;3.60;1.60;;;22.00;74.50;;;;;;5058338;28;20020;-79
2023/08/26 09:35:19;;;;;;;5.15;1.85;;;22.10;74.50;;;;;;5055993;28;20477;-83
2023/08/26 09:37:46;;;;;;;5.20;1.92;;;22.00;74.60;;;;;;5055700;28;20029;-83
2023/08/26 09:40:14;;;;;;;8.02;1.90;;;21.90;75.00;;;;;;5055698;28;20025;-82
2023/08/26 09:42:41;;;;;;;5.97;1.80;;;21.90;74.90;;;;;;5055856;28;20073;-83
2023/08/26 09:45:07;;;;;;;4.40;1.75;;;21.80;74.80;;;;;;5055958;28;20024;-79
2023/08/26 09:47:37;;;;;;;5.25;1.55;;;21.90;75.10;;;;;;5059160;28;20055;-77
2023/08/26 09:50:03;;;;;;;7.22;1.83;;;22.00;74.60;;;;;;5059382;28;20016;-78
2023/08/26 09:52:29;;;;;;;5.55;1.70;;;22.00;74.70;;;;;;5060040;28;20120;-78
2023/08/26 09:54:56;;;;;;;5.13;1.70;;;22.10;75.00;;;;;;5046989;28;20052;-78
2023/08/26 09:57:22;;;;;;;4.47;1.77;;;22.30;75.20;;;;;;5128146;22;20073;-79
2023/08/26 09:59:48;;;;;;;7.32;1.80;;;22.30;75.50;;;;;;5096389;28;20045;-81
2023/08/26 10:02:23;;;;;;;5.60;1.80;;;22.50;75.90;;;;;;5096811;28;20130;-82
2023/08/26 10:04:56;;;;;;;4.65;1.70;;;22.40;76.00;;;;;;5077381;28;20544;-79
2023/08/26 10:07:23;;;;;;;4.65;1.80;;;22.50;76.20;;;;;;5108563;28;20034;-80
2023/08/26 10:09:55;;;;;;;4.00;1.52;;;22.60;76.70;;;;;;5116717;28;20500;-79
2023/08/26 10:12:28;;;;;;;7.05;1.80;;;22.50;76.80;;;;;;5098762;28;20705;-79
2023/08/26 10:14:57;;;;;;;3.97;1.63;;;22.60;77.10;;;;;;5098015;28;20019;-79
2023/08/26 10:17:25;;;;;;;3.70;1.58;;;22.60;77.30;;;;;;5117090;28;20024;-80
2023/08/26 10:19:52;;;;;;;4.88;1.65;;;22.60;77.40;;;;;;5116181;28;20023;-79
2023/08/26 10:22:18;;;;;;;3.63;1.50;;;22.70;77.60;;;;;;5116491;28;20103;-79
2023/08/26 10:24:45;;;;;;;4.45;1.50;;;22.70;77.70;;;;;;5097956;28;20055;-79
2023/08/26 10:27:10;;;;;;;4.82;1.85;;;22.70;77.80;;;;;;5097517;28;20487;-79
2023/08/26 10:29:37;;;;;;;3.45;1.55;;;22.80;78.00;;;;;;5097893;28;20028;-79
2023/08/26 10:32:19;;;;;;;3.88;1.50;;;22.80;78.20;;;;;;5098306;28;20039;-79
2023/08/26 10:35:12;;;;;;;3.75;1.58;;;22.80;78.50;;;;;;5116022;28;20495;-79
2023/08/26 10:37:38;;;;;;;3.65;1.60;;;22.80;78.70;;;;;;5094514;28;20027;-80
2023/08/26 10:40:12;;;;;;;4.15;1.60;;;22.70;78.90;;;;;;5116277;28;20035;-79
2023/08/26 10:42:38;;;;;;;3.30;1.58;;;22.80;79.10;;;;;;5098060;28;20456;-81
2023/08/26 10:45:13;;;;;;;3.03;1.50;;;22.70;79.40;;;;;;5116067;28;20023;-79
2023/08/26 10:47:50;;;;;;;4.75;1.48;;;22.80;79.50;;;;;;5097697;28;20023;-79
2023/08/26 10:50:22;;;;;;;3.38;1.35;;;22.70;79.60;;;;;;5097658;28;20064;-79
2023/08/26 10:52:54;;;;;;;2.42;1.40;;;22.80;79.70;;;;;;5097434;28;20024;-79
2023/08/26 10:55:30;;;;;;;2.92;1.40;;;22.80;79.90;;;;;;5115759;28;20019;-79
2023/08/26 10:58:09;;;;;;;3.78;1.50;;;22.80;80.00;;;;;;5097293;28;20019;-79
2023/08/26 11:00:37;;;;;;;2.40;1.40;;;22.80;80.10;;;;;;5097631;28;20023;-81
2023/08/26 11:03:05;;;;;;;4.50;1.50;;;22.80;80.00;;;;;;5115997;28;20026;-79
2023/08/26 11:05:31;;;;;;;3.33;1.50;;;22.80;80.10;;;;;;5097437;28;20024;-79
2023/08/26 11:07:57;;;;;;;3.33;1.50;;;22.80;80.30;;;;;;5097384;28;20035;-79
2023/08/26 11:10:32;;;;;;;4.25;1.60;;;22.80;80.40;;;;;;5097502;28;20373;-79
2023/08/26 11:12:57;;;;;;;3.13;1.45;;;22.80;80.60;;;;;;5115698;28;20030;-79
2023/08/26 11:15:23;;;;;;;3.25;1.48;;;22.80;80.80;;;;;;5115569;28;20031;-79
2023/08/26 11:17:49;;;;;;;3.33;1.50;;;22.80;81.00;;;;;;5096997;28;20023;-79
2023/08/26 11:20:18;;;;;;;2.42;1.20;;;22.80;81.20;;;;;;5097573;28;20415;-79
2023/08/26 11:22:45;;;;;;;2.95;1.48;;;22.80;81.30;;;;;;5097698;28;20020;-79
2023/08/26 11:25:15;;;;;;;3.17;1.40;;;22.80;81.40;;;;;;5115867;28;20126;-79
2023/08/26 11:27:40;;;;;;;3.53;1.40;;;22.80;81.50;;;;;;5096913;28;20136;-81
2023/08/26 11:30:10;;;;;;;2.75;1.25;;;22.80;81.60;;;;;;5115497;28;20089;-79
2023/08/26 11:32:40;;;;;;;2.80;1.42;;;22.70;81.80;;;;;;5096744;28;20440;-80
2023/08/26 11:35:08;;;;;;;3.05;1.50;;;22.80;81.80;;;;;;5114814;28;20491;-79
2023/08/26 11:37:46;;;;;;;3.67;1.50;;;22.70;82.40;;;;;;5097410;28;20031;-79
2023/08/26 11:40:13;;;;;;;2.42;1.30;;;22.80;82.00;;;;;;5119268;28;20019;-81
2023/08/26 11:42:38;;;;;;;2.95;1.50;;;22.70;82.10;;;;;;5119479;28;20438;-80
2023/08/26 11:45:13;;;;;;;2.60;1.40;;;22.80;82.20;;;;;;5101041;28;20034;-79
2023/08/26 11:47:42;;;;;;;2.92;1.55;;;22.80;82.30;;;;;;5093448;28;20016;-78
2023/08/26 11:50:11;;;;;;;3.67;1.50;;;22.80;82.30;;;;;;5069570;28;20048;-78
2023/08/26 11:52:38;;;;;;;2.75;1.20;;;22.90;82.40;;;;;;5061482;28;20020;-79
2023/08/26 11:55:06;;;;;;;6.68;1.60;;;22.80;82.30;;;;;;5084580;28;20048;-81
2023/08/26 11:57:35;;;;;;;7.65;2.03;;;22.80;81.80;;;;;;5068799;28;20500;-79
2023/08/26 12:00:15;;;;;;;9.80;2.10;;;22.80;81.80;;;;;;5087888;28;20016;-81
2023/08/26 12:02:51;;;;;;;12.97;2.30;;;22.80;81.20;;;;;;5087593;28;20052;-80
2023/08/26 12:05:18;;;;;;;7.78;2.10;;;22.70;80.90;;;;;;5085620;28;20024;-78
2023/08/26 12:07:45;;;;;;;6.38;1.90;;;22.80;80.90;;;;;;5099159;28;20496;-80
2023/08/26 12:10:11;;;;;;;8.90;2.15;;;22.80;81.00;;;;;;5097488;28;20047;-79
2023/08/26 12:12:38;;;;;;;7.97;1.88;;;22.80;81.10;;;;;;5078891;28;20118;-78
2023/08/26 12:15:09;;;;;;;9.07;1.95;;;22.80;81.30;;;;;;5096036;28;20020;-79
2023/08/26 12:17:54;;;;;;;10.07;2.17;;;22.80;81.40;;;;;;5077770;28;20016;-78
2023/08/26 12:20:24;;;;;;;6.88;1.90;;;22.80;81.50;;;;;;5095977;28;20416;-78
2023/08/26 12:22:52;;;;;;;7.60;2.10;;;22.70;81.80;;;;;;5077963;28;20046;-80
2023/08/26 12:25:30;;;;;;;8.02;2.05;;;22.70;81.80;;;;;;5078865;28;20081;-80
2023/08/26 12:28:08;;;;;;;29.85;4.40;;;22.70;82.00;;;;;;5060289;28;20028;-80
2023/08/26 12:30:34;;;;;;;33.08;4.28;;;22.70;82.50;;;;;;5060308;28;20062;-79
2023/08/26 12:32:59;;;;;;;26.63;4.60;;;22.70;82.60;;;;;;5059935;28;20032;-79
2023/08/26 12:35:25;;;;;;;28.08;3.78;;;22.70;82.70;;;;;;5059412;28;20056;-80
2023/08/26 12:37:51;;;;;;;19.13;3.20;;;22.60;82.80;;;;;;5078190;28;20021;-80
2023/08/26 12:40:17;;;;;;;15.43;3.00;;;22.60;82.80;;;;;;5078418;28;20016;-81
2023/08/26 12:42:42;;;;;;;20.55;3.17;;;22.60;83.00;;;;;;5077890;28;20104;-80
2023/08/26 12:45:08;;;;;;;15.10;3.10;;;22.70;83.30;;;;;;5058898;28;20131;-79